Time;durP1;ratioP1;P1;durP2;ratioP2;P2;SDS_P1;SDS_P2;PMS_P1;PMS_P2;Temp;Humidity;BMP_temperature;BMP_pressure;BME280_temperature;BME280_humidity;BME280_pressure;Samples;Min_cycle;Max_cycle;Signal;HPM_P1;HPM_P2
2021/12/20 00:01:52;;;;;;;7.33;4.47;;;6.50;99.90;;;6.59;86.88;101590.38;5012562;28;20674;-65
2021/12/20 00:04:19;;;;;;;5.63;3.70;;;6.30;99.90;;;6.53;86.50;101595.81;5032369;28;20600;-65
2021/12/20 00:06:46;;;;;;;8.50;4.77;;;6.30;99.90;;;6.49;87.61;101584.72;5030686;28;20639;-65
2021/12/20 00:09:14;;;;;;;6.10;4.10;;;6.20;99.90;;;6.47;86.76;101580.50;5031484;28;20735;-65
2021/12/20 00:11:41;;;;;;;6.13;3.90;;;6.30;99.90;;;6.43;87.16;101582.34;5014085;28;20644;-65
2021/12/20 00:14:08;;;;;;;5.40;3.40;;;6.20;99.90;;;6.43;88.17;101579.75;5031355;28;20636;-65
2021/12/20 00:16:35;;;;;;;4.80;3.30;;;6.20;99.90;;;6.36;87.96;101578.34;5031461;28;20652;-65
2021/12/20 00:19:02;;;;;;;6.60;3.60;;;6.20;99.90;;;6.28;88.49;101570.84;5014294;28;20601;-64
2021/12/20 00:21:29;;;;;;;8.37;4.30;;;6.10;99.90;;;6.25;89.16;101572.72;5018204;28;20649;-63
2021/12/20 00:23:56;;;;;;;7.47;3.70;;;6.10;99.90;;;6.22;89.21;101575.44;5029765;28;20682;-64
2021/12/20 00:26:23;;;;;;;7.30;4.30;;;6.00;99.90;;;6.24;89.04;101587.44;5013403;28;20600;-63
2021/12/20 00:28:50;;;;;;;8.57;4.33;;;6.10;99.90;;;6.22;89.11;101576.28;5030665;28;20620;-64
2021/12/20 00:31:17;;;;;;;9.70;4.10;;;6.10;99.90;;;6.13;89.86;101586.19;5029701;28;20652;-66
2021/12/20 00:33:44;;;;;;;5.20;3.97;;;6.00;99.90;;;6.06;89.92;101585.56;5029598;28;20715;-66
2021/12/20 00:36:10;;;;;;;9.90;3.63;;;5.90;99.90;;;6.09;90.40;101576.84;5030836;28;20958;-67
2021/12/20 00:41:24;;;;;;;4.73;3.17;;;5.90;99.90;;;6.12;89.64;101568.94;5022975;28;20657;-65
2021/12/20 00:43:51;;;;;;;8.40;4.10;;;5.90;99.90;;;6.04;90.16;101558.88;5031087;28;20739;-65
2021/12/20 00:46:18;;;;;;;9.37;4.20;;;5.90;99.90;;;6.08;90.26;101562.19;5029802;28;20636;-65
2021/12/20 00:48:45;;;;;;;8.30;4.70;;;5.90;99.90;;;6.09;90.38;101564.69;5029890;28;20633;-65
2021/12/20 00:51:11;;;;;;;7.57;4.80;;;5.90;99.90;;;6.12;89.81;101563.75;5009363;28;20663;-65
2021/12/20 00:53:38;;;;;;;11.30;5.03;;;5.90;99.90;;;6.15;90.81;101559.28;5011724;28;21251;-65
2021/12/20 00:56:05;;;;;;;9.33;3.80;;;6.00;99.90;;;6.19;90.06;101558.28;5027086;28;21017;-65
2021/12/20 00:58:32;;;;;;;10.47;4.60;;;6.00;99.90;;;6.15;90.14;101551.50;5032590;28;20644;-65
2021/12/20 01:00:59;;;;;;;9.33;4.57;;;6.00;99.90;;;6.21;89.91;101558.22;5029652;28;21115;-65
2021/12/20 01:03:29;;;;;;;7.40;4.50;;;6.00;99.90;;;6.24;89.94;101556.34;5028937;28;20696;-65
2021/12/20 01:05:59;;;;;;;7.03;3.57;;;6.10;99.90;;;6.14;89.46;101562.78;5030879;28;20593;-65
2021/12/20 01:08:29;;;;;;;12.77;5.07;;;6.00;99.90;;;6.12;90.36;101556.81;5028823;28;20727;-64
2021/12/20 01:10:56;;;;;;;9.17;4.70;;;5.90;99.90;;;6.11;89.83;101556.91;5030282;28;21349;-64
2021/12/20 01:13:28;;;;;;;4.83;3.27;;;6.00;99.90;;;6.08;90.50;101550.06;5031283;28;20734;-64
2021/12/20 01:15:59;;;;;;;8.60;4.20;;;5.90;99.90;;;6.05;90.70;101550.19;5029220;28;20739;-65
2021/12/20 01:18:27;;;;;;;6.37;3.90;;;5.90;99.90;;;6.00;90.97;101539.16;5012326;28;20707;-64
2021/12/20 01:20:54;;;;;;;7.57;4.00;;;5.80;99.90;;;6.02;90.52;101546.88;5029788;28;20652;-65
2021/12/20 01:23:21;;;;;;;9.10;3.93;;;5.90;99.90;;;6.03;90.54;101552.00;5060131;22;20615;-67
2021/12/20 01:25:48;;;;;;;10.90;3.53;;;5.80;99.90;;;6.03;90.10;101552.00;5010323;28;20653;-68
2021/12/20 01:28:16;;;;;;;5.60;3.60;;;5.90;99.90;;;6.02;90.53;101542.53;5011961;28;20614;-68
2021/12/20 01:30:43;;;;;;;8.63;4.33;;;5.90;99.90;;;6.01;91.02;101551.19;5011005;28;20641;-67
2021/12/20 01:33:12;;;;;;;8.37;4.03;;;5.80;99.90;;;6.06;90.96;101549.28;5011417;28;20627;-68
2021/12/20 01:35:40;;;;;;;9.20;3.83;;;5.90;99.90;;;6.07;90.12;101550.13;4993677;28;20732;-68
2021/12/20 01:38:10;;;;;;;8.47;4.23;;;5.90;99.90;;;6.04;90.05;101547.66;5011073;28;20625;-67
2021/12/20 01:40:37;;;;;;;9.20;4.10;;;5.90;99.90;;;6.01;90.19;101558.97;5010058;28;21059;-68
2021/12/20 01:43:07;;;;;;;5.87;3.53;;;5.80;99.90;;;5.99;90.20;101555.59;5011745;28;20628;-68
2021/12/20 01:45:33;;;;;;;5.83;3.50;;;5.80;99.90;;;5.95;90.78;101555.78;4994236;28;20679;-67
2021/12/20 01:48:04;;;;;;;10.43;4.43;;;5.70;99.90;;;5.96;91.29;101553.13;5011019;28;20614;-68
2021/12/20 01:53:17;;;;;;;5.10;3.60;;;5.80;99.90;;;5.91;90.21;101544.69;5009483;28;20605;-68
2021/12/20 01:55:44;;;;;;;6.40;3.13;;;5.80;99.90;;;5.86;90.79;101541.44;5010773;28;20704;-68
2021/12/20 01:58:12;;;;;;;9.13;4.30;;;5.70;99.90;;;5.83;91.09;101538.09;5010473;28;21175;-67
2021/12/20 02:01:01;;;;;;;8.65;3.83;;;5.60;99.90;;;5.79;91.07;101542.53;5009397;28;21208;-69
2021/12/20 02:03:26;;;;;;;6.50;3.37;;;5.60;99.90;;;5.77;92.00;101546.09;4995640;28;20205;-68
2021/12/20 02:05:57;;;;;;;6.10;3.37;;;5.50;99.90;;;5.77;91.17;101539.16;5010153;28;21209;-67
2021/12/20 02:08:28;;;;;;;7.43;3.80;;;5.60;99.90;;;5.77;91.36;101535.75;5006002;28;20994;-67
2021/12/20 02:10:59;;;;;;;7.40;3.83;;;5.60;99.90;;;5.78;91.89;101542.59;4994858;28;20988;-69
2021/12/20 02:13:28;;;;;;;9.85;4.07;;;5.60;99.90;;;5.79;91.22;101545.09;4992518;28;20716;-67
2021/12/20 02:15:58;;;;;;;7.22;3.97;;;5.60;99.90;;;5.79;91.63;101554.66;5009688;28;20202;-68
2021/12/20 02:18:25;;;;;;;7.75;3.80;;;5.60;99.90;;;5.82;91.83;101552.78;5009089;28;20592;-68
2021/12/20 02:20:53;;;;;;;6.20;4.03;;;5.70;99.90;;;5.82;91.42;101542.41;4989997;28;20257;-68
2021/12/20 02:23:20;;;;;;;8.00;4.20;;;5.60;99.90;;;5.82;91.51;101534.66;4977020;28;20642;-68
2021/12/20 02:25:48;;;;;;;13.27;4.13;;;5.70;99.90;;;5.80;91.91;101549.41;5003508;28;20620;-68
2021/12/20 02:28:17;;;;;;;9.23;4.30;;;5.70;99.90;;;5.83;90.96;101548.44;4993980;28;20624;-68
2021/12/20 02:38:50;;;;;;;10.05;4.20;;;5.60;99.90;;;5.79;91.75;101549.47;5011076;28;20601;-68
2021/12/20 02:41:20;;;;;;;7.13;4.30;;;5.60;99.90;;;5.77;91.59;101546.91;5010076;28;20598;-68
2021/12/20 02:43:55;;;;;;;9.70;4.60;;;5.60;99.90;;;5.79;91.06;101545.09;5010312;28;20656;-68
2021/12/20 02:48:56;;;;;;;6.47;3.70;;;5.60;99.90;;;5.85;91.45;101539.75;5009786;28;20206;-70
2021/12/20 02:51:26;;;;;;;6.70;3.92;;;5.70;99.90;;;5.84;91.53;101535.47;5001651;28;20640;-69
2021/12/20 02:53:58;;;;;;;5.73;3.77;;;5.70;99.90;;;5.85;91.91;101529.41;5010772;28;20699;-69
2021/12/20 02:56:25;;;;;;;4.90;3.60;;;5.70;99.90;;;5.89;90.77;101540.47;5008592;28;20661;-68
2021/12/20 02:58:53;;;;;;;5.87;3.93;;;5.70;99.90;;;5.84;90.98;101543.22;5010183;28;20948;-69
2021/12/20 03:01:21;;;;;;;7.37;4.13;;;5.60;99.90;;;5.80;90.98;101539.03;5010040;28;20637;-68
2021/12/20 03:03:50;;;;;;;6.93;3.70;;;5.60;99.90;;;5.78;91.48;101535.66;5010574;28;20634;-68
2021/12/20 03:06:28;;;;;;;9.67;4.50;;;5.60;99.90;;;5.74;91.31;101526.34;5008048;28;20660;-66
2021/12/20 03:08:57;;;;;;;6.90;3.30;;;5.50;99.90;;;5.73;92.36;101535.00;5010021;28;20613;-68
2021/12/20 03:11:27;;;;;;;5.30;3.60;;;5.50;99.90;;;5.74;91.64;101541.00;4992242;28;20707;-65
2021/12/20 03:14:07;;;;;;;7.07;4.53;;;5.50;99.90;;;5.74;91.15;101539.28;5007712;28;20659;-67
2021/12/20 03:16:34;;;;;;;7.10;4.07;;;5.60;99.90;;;5.74;91.60;101530.66;5005285;28;20661;-68
2021/12/20 03:19:03;;;;;;;6.43;3.85;;;5.60;99.90;;;5.73;91.72;101535.00;5009551;28;20641;-68
2021/12/20 03:21:31;;;;;;;10.45;4.28;;;5.50;99.90;;;5.72;91.75;101535.91;5008170;28;20206;-69
2021/12/20 03:23:59;;;;;;;9.10;4.20;;;5.50;99.90;;;5.71;91.72;101531.63;5009402;28;20253;-69
2021/12/20 03:26:26;;;;;;;10.17;4.33;;;5.60;99.90;;;5.71;91.12;101530.78;4993303;28;20645;-68
2021/12/20 03:28:53;;;;;;;15.07;4.80;;;5.50;99.90;;;5.70;91.72;101535.13;5009887;28;20601;-68
2021/12/20 03:31:20;;;;;;;12.03;4.70;;;5.50;99.90;;;5.71;91.19;101534.19;5009013;28;20724;-69
2021/12/20 03:33:47;;;;;;;8.90;4.33;;;5.60;99.90;;;5.67;91.03;101540.41;5010953;28;20655;-68
2021/12/20 03:36:14;;;;;;;10.37;4.33;;;5.50;99.90;;;5.67;92.04;101535.22;5009161;28;20637;-68
2021/12/20 03:38:41;;;;;;;6.03;4.13;;;5.50;99.90;;;5.66;91.82;101530.13;5009450;28;20621;-69
2021/12/20 03:41:08;;;;;;;7.25;3.80;;;5.50;99.90;;;5.66;92.03;101537.88;4992049;28;20630;-68
2021/12/20 03:43:36;;;;;;;5.53;3.70;;;5.50;99.90;;;5.66;92.06;101536.16;5010131;28;20649;-68
2021/12/20 03:46:04;;;;;;;10.60;4.63;;;5.50;99.90;;;5.68;92.19;101542.09;5008945;28;20634;-68
2021/12/20 03:48:33;;;;;;;10.33;4.73;;;5.50;99.90;;;5.69;91.49;101538.59;5008898;28;20620;-68
2021/12/20 03:51:02;;;;;;;10.50;4.80;;;5.50;99.90;;;5.72;91.78;101535.06;5008175;28;20728;-68
2021/12/20 03:53:31;;;;;;;9.63;4.53;;;5.60;99.90;;;5.69;91.91;101528.25;5010202;28;20994;-68
2021/12/20 03:55:58;;;;;;;8.30;4.03;;;5.50;99.90;;;5.69;92.05;101523.06;4987062;28;20394;-69
2021/12/20 03:58:27;;;;;;;10.32;5.40;;;5.50;99.90;;;5.69;91.28;101520.47;4992206;28;20893;-68
2021/12/20 04:00:57;;;;;;;8.80;4.53;;;5.60;99.90;;;5.65;91.83;101524.09;5009132;28;20198;-68
2021/12/20 04:03:25;;;;;;;7.93;4.30;;;5.50;99.90;;;5.66;91.98;101525.78;5011988;28;20617;-68
2021/12/20 04:05:53;;;;;;;13.25;4.88;;;5.50;99.90;;;5.55;91.87;101521.91;5014234;28;20617;-68
2021/12/20 04:08:20;;;;;;;12.77;4.72;;;5.40;99.90;;;5.55;92.44;101525.34;4996171;28;20217;-66
2021/12/20 04:10:47;;;;;;;10.38;4.10;;;5.30;99.90;;;5.50;92.63;101529.81;5012163;28;20207;-67
2021/12/20 04:13:14;;;;;;;12.93;4.30;;;5.30;99.90;;;5.47;93.05;101517.00;5013543;28;20711;-67
2021/12/20 04:15:41;;;;;;;9.27;4.60;;;5.30;99.90;;;5.42;93.03;101524.94;5009728;28;20647;-68
2021/12/20 04:18:08;;;;;;;11.50;4.55;;;5.20;99.90;;;5.42;93.64;101519.78;5012238;28;20237;-69
2021/12/20 04:20:35;;;;;;;7.88;4.10;;;5.30;99.90;;;5.45;93.40;101526.59;5013279;28;20199;-68
2021/12/20 04:23:01;;;;;;;8.63;3.85;;;5.30;99.90;;;5.48;93.56;101522.13;5011615;28;20213;-69
2021/12/20 04:25:28;;;;;;;6.27;3.40;;;5.30;99.90;;;5.49;93.32;101533.34;5013185;28;20650;-68
2021/12/20 04:27:55;;;;;;;7.18;4.22;;;5.30;99.90;;;5.50;93.06;101532.41;5011768;28;20637;-68
2021/12/20 04:30:23;;;;;;;10.88;5.05;;;5.40;99.90;;;5.56;93.41;101536.53;5012677;28;20730;-68
2021/12/20 04:32:50;;;;;;;7.30;4.05;;;5.40;99.90;;;5.59;93.49;101526.06;5011970;28;20807;-69
2021/12/20 04:35:17;;;;;;;7.60;4.43;;;5.40;99.90;;;5.51;92.86;101537.53;5025636;28;20222;-66
2021/12/20 04:37:46;;;;;;;7.00;4.10;;;5.40;99.90;;;5.51;93.01;101529.75;5001827;28;20223;-69
2021/12/20 04:40:19;;;;;;;11.32;4.65;;;5.40;99.90;;;5.55;92.93;101532.25;5008959;28;20213;-70
2021/12/20 04:42:49;;;;;;;9.40;3.73;;;5.40;99.90;;;5.49;93.36;101534.16;4995040;28;20187;-69
2021/12/20 04:45:17;;;;;;;12.65;3.95;;;5.40;99.90;;;5.51;92.87;101539.28;5010862;28;20676;-67
2021/12/20 04:47:44;;;;;;;13.18;4.82;;;5.40;99.90;;;5.51;93.34;101534.94;5011730;28;20206;-69
2021/12/20 04:50:12;;;;;;;6.90;4.20;;;5.40;99.90;;;5.53;93.11;101537.50;4995287;28;20209;-69
2021/12/20 04:52:41;;;;;;;9.45;4.50;;;5.40;99.90;;;5.50;92.91;101522.06;4993385;28;20207;-69
2021/12/20 04:55:11;;;;;;;7.57;3.95;;;5.30;99.90;;;5.52;93.35;101525.44;4995382;28;20740;-67
2021/12/20 04:57:40;;;;;;;12.43;5.07;;;5.30;99.90;;;5.56;93.12;101521.81;5012278;28;20228;-69
2021/12/20 05:00:13;;;;;;;10.63;5.05;;;5.40;99.90;;;5.60;93.42;101533.75;5012390;28;20261;-69
2021/12/20 05:02:40;;;;;;;8.43;4.00;;;5.40;99.90;;;5.63;93.24;101538.84;5010169;28;20199;-69
2021/12/20 05:05:09;;;;;;;9.10;3.90;;;5.50;99.90;;;5.64;93.04;101537.09;4994190;28;20246;-70
2021/12/20 05:07:38;;;;;;;10.25;4.68;;;5.50;99.90;;;5.65;92.38;101534.44;5011779;28;20628;-69
2021/12/20 05:10:13;;;;;;;8.50;4.38;;;5.50;99.90;;;5.67;92.18;101534.38;4994194;28;20238;-70
2021/12/20 05:12:40;;;;;;;10.52;4.53;;;5.50;99.90;;;5.69;92.74;101540.34;5012645;28;20212;-69
2021/12/20 05:15:08;;;;;;;8.32;4.30;;;5.50;99.90;;;5.68;92.46;101538.66;5011042;28;20231;-69
2021/12/20 05:17:36;;;;;;;8.00;4.07;;;5.50;99.90;;;5.67;92.06;101545.59;5010107;28;20733;-69
2021/12/20 05:20:05;;;;;;;9.40;4.65;;;5.50;99.90;;;5.67;92.34;101543.00;5011572;28;20624;-69
2021/12/20 05:22:32;;;;;;;9.00;4.53;;;5.50;99.90;;;5.67;92.59;101545.59;5011408;28;20659;-69
2021/12/20 05:24:59;;;;;;;12.48;4.75;;;5.50;99.90;;;5.67;92.19;101537.81;5012413;28;20234;-69
2021/12/20 05:27:26;;;;;;;7.20;3.90;;;5.50;99.90;;;5.70;92.33;101544.63;5010994;28;20241;-68
2021/12/20 05:29:59;;;;;;;11.67;5.10;;;5.50;99.90;;;5.64;92.39;101557.81;5011729;28;20625;-70
2021/12/20 05:32:26;;;;;;;10.10;4.72;;;5.50;99.90;;;5.66;92.54;101551.69;5010261;28;21007;-67
2021/12/20 05:34:53;;;;;;;7.70;4.32;;;5.50;99.90;;;5.61;92.67;101553.56;5011180;28;20249;-69
2021/12/20 05:37:20;;;;;;;7.57;4.20;;;5.40;99.90;;;5.63;92.97;101553.50;5011012;28;20226;-68
2021/12/20 05:39:47;;;;;;;12.47;5.43;;;5.50;99.90;;;5.65;92.79;101557.75;5002778;28;20628;-69
2021/12/20 05:42:14;;;;;;;5.90;3.60;;;5.50;99.90;;;5.69;92.95;101556.72;5010967;28;21186;-69
2021/12/20 05:44:41;;;;;;;11.10;5.17;;;5.60;99.90;;;5.77;92.19;101559.88;5010546;28;20690;-68
2021/12/20 05:47:08;;;;;;;10.23;4.83;;;5.60;99.90;;;5.78;93.11;101555.53;5011164;28;20641;-67
2021/12/20 05:49:35;;;;;;;9.98;4.85;;;5.60;99.90;;;5.82;92.41;101554.50;5011563;28;20633;-68
2021/12/20 05:52:03;;;;;;;9.80;4.40;;;5.70;99.90;;;5.77;92.57;101565.03;5010706;28;20206;-66
2021/12/20 05:54:31;;;;;;;10.10;4.30;;;5.60;99.90;;;5.78;92.61;101553.78;4994961;28;20703;-68
2021/12/20 05:56:58;;;;;;;8.73;3.90;;;5.60;99.90;;;5.77;92.48;101556.44;5010392;28;20779;-68
2021/12/20 05:59:25;;;;;;;11.63;5.30;;;5.60;99.90;;;5.78;92.96;101566.75;5010270;28;21207;-70
2021/12/20 06:01:52;;;;;;;11.70;5.47;;;5.60;99.90;;;5.79;93.34;101565.00;5010714;28;20633;-70
2021/12/20 06:04:20;;;;;;;10.45;5.70;;;5.60;99.90;;;5.80;92.67;101577.91;5008874;28;20785;-71
2021/12/20 06:06:47;;;;;;;10.57;5.20;;;5.60;99.90;;;5.84;92.46;101574.31;5010833;28;20195;-69
2021/12/20 06:09:14;;;;;;;12.90;6.07;;;5.70;99.90;;;5.89;92.75;101576.72;5007598;28;20621;-70
2021/12/20 06:11:41;;;;;;;11.67;5.50;;;5.70;99.90;;;5.90;92.36;101570.66;5009934;28;20644;-70
2021/12/20 06:14:08;;;;;;;13.07;5.80;;;5.70;99.90;;;5.93;92.22;101573.97;4994211;28;20645;-69
2021/12/20 06:16:35;;;;;;;12.57;6.63;;;5.80;99.90;;;5.95;92.18;101573.91;4993556;28;20637;-70
2021/12/20 06:19:03;;;;;;;13.43;6.30;;;5.80;99.90;;;5.93;92.75;101581.75;5010168;28;20665;-69
2021/12/20 06:21:31;;;;;;;9.27;6.00;;;5.80;99.90;;;5.94;91.64;101569.66;4996337;28;20642;-69
2021/12/20 06:23:58;;;;;;;7.70;5.27;;;5.80;99.90;;;6.00;92.18;101579.78;5010421;28;21275;-69
2021/12/20 06:26:25;;;;;;;13.10;6.17;;;5.90;99.90;;;6.00;91.76;101577.19;5008731;28;20660;-69
2021/12/20 06:28:53;;;;;;;9.67;5.57;;;5.90;99.90;;;6.00;91.77;101579.78;5011952;28;20609;-69
2021/12/20 06:31:22;;;;;;;9.60;5.90;;;5.90;99.90;;;6.01;91.86;101584.88;5010068;28;20688;-69
2021/12/20 06:33:49;;;;;;;11.13;6.10;;;5.90;99.90;;;6.00;91.01;101579.78;5009372;28;21028;-70
2021/12/20 06:36:18;;;;;;;11.83;6.07;;;5.80;99.90;;;5.98;90.80;101576.41;5010430;28;20621;-69
2021/12/20 06:38:46;;;;;;;11.30;5.90;;;5.80;99.90;;;5.95;91.98;101579.94;5009283;28;20661;-69
2021/12/20 06:41:14;;;;;;;9.67;5.80;;;5.80;99.90;;;5.94;91.85;101567.88;4993169;28;21044;-69
2021/12/20 06:43:41;;;;;;;13.10;6.53;;;5.80;99.90;;;5.98;91.14;101577.25;5008257;28;20657;-69
2021/12/20 06:46:08;;;;;;;14.27;6.50;;;5.80;99.90;;;5.94;91.88;101578.25;5009734;28;20616;-69
2021/12/20 06:48:35;;;;;;;13.20;5.83;;;5.80;99.90;;;5.96;91.33;101586.78;4994791;28;20725;-70
2021/12/20 06:51:02;;;;;;;12.60;5.90;;;5.80;99.90;;;5.95;91.52;101585.13;4997363;28;20632;-69
2021/12/20 06:53:29;;;;;;;11.93;6.50;;;5.80;99.90;;;5.97;90.66;101596.28;5008576;28;20644;-70
2021/12/20 06:55:56;;;;;;;7.57;5.20;;;5.80;99.90;;;5.97;91.19;101596.28;5008868;28;20601;-69
2021/12/20 06:58:23;;;;;;;11.87;6.10;;;5.80;99.90;;;5.95;90.96;101592.91;5008340;28;20668;-70
2021/12/20 07:00:52;;;;;;;10.07;6.07;;;5.80;99.90;;;5.97;90.62;101601.44;5011165;28;20601;-69
2021/12/20 07:03:20;;;;;;;10.73;6.10;;;5.80;99.90;;;5.98;91.62;101603.16;5009394;28;20672;-69
2021/12/20 07:05:48;;;;;;;14.77;6.40;;;5.80;99.90;;;5.93;90.97;101601.63;4992887;28;20647;-69
2021/12/20 07:08:16;;;;;;;9.67;5.37;;;5.80;99.90;;;5.92;91.75;101605.94;4992441;28;20601;-69
2021/12/20 07:10:43;;;;;;;12.60;5.70;;;5.80;99.90;;;5.93;90.78;101607.66;5009350;28;20659;-69
2021/12/20 07:13:10;;;;;;;8.90;5.03;;;5.80;99.90;;;5.96;91.75;101610.09;5011102;28;20600;-68
2021/12/20 07:15:38;;;;;;;14.23;7.07;;;5.80;99.90;;;5.95;91.04;101607.59;4990808;28;20664;-69
2021/12/20 07:18:05;;;;;;;16.00;7.87;;;5.80;99.90;;;5.95;91.65;101607.59;5010687;28;21020;-69
2021/12/20 07:20:33;;;;;;;18.10;7.37;;;5.80;99.90;;;5.94;91.63;101619.69;4979458;28;20634;-69
2021/12/20 07:23:00;;;;;;;19.75;7.90;;;5.80;99.90;;;5.92;91.45;101618.09;4999244;28;20637;-70
2021/12/20 07:25:27;;;;;;;20.03;8.47;;;5.70;99.90;;;5.87;91.89;101619.97;5039074;22;20237;-66
2021/12/20 07:27:54;;;;;;;11.88;6.45;;;5.70;99.90;;;5.89;91.02;101615.59;5008515;28;21286;-64
2021/12/20 07:30:22;;;;;;;17.52;6.97;;;5.80;99.90;;;5.90;91.03;101620.69;5025835;28;20206;-64
2021/12/20 07:32:49;;;;;;;18.05;7.50;;;5.80;99.90;;;5.90;91.81;101631.06;5029290;28;20205;-64
2021/12/20 07:35:16;;;;;;;21.57;8.57;;;5.80;99.90;;;5.83;92.18;101624.41;5018031;28;20214;-64
2021/12/20 07:37:44;;;;;;;24.08;10.00;;;5.70;99.90;;;5.81;92.29;101621.03;4994632;28;20661;-64
2021/12/20 07:40:12;;;;;;;24.50;10.10;;;5.60;99.90;;;5.79;91.75;101619.41;5012327;28;20558;-65
2021/12/20 07:42:39;;;;;;;19.10;8.60;;;5.60;99.90;;;5.77;91.75;101627.19;5013514;28;20232;-65
2021/12/20 07:45:08;;;;;;;18.77;8.40;;;5.60;99.90;;;5.73;92.05;101630.81;5012376;28;20659;-65
2021/12/20 07:47:51;;;;;;;18.77;8.33;;;5.60;99.90;;;5.66;92.35;101631.94;5002015;28;21197;-64
2021/12/20 07:50:20;;;;;;;14.60;7.00;;;5.60;99.90;;;5.70;92.38;101635.25;4993094;28;20622;-64
2021/12/20 07:52:47;;;;;;;17.50;6.85;;;5.60;99.90;;;5.73;92.17;101638.56;5004255;28;20207;-64
2021/12/20 07:55:14;;;;;;;15.40;7.47;;;5.60;99.90;;;5.74;91.36;101629.06;5009098;28;20313;-65
2021/12/20 07:57:41;;;;;;;13.95;6.65;;;5.60;99.90;;;5.72;91.88;101629.13;5012685;28;20199;-65
2021/12/20 08:00:11;;;;;;;13.40;6.32;;;5.60;99.90;;;5.67;91.94;101632.75;5014558;28;20199;-65
2021/12/20 08:02:38;;;;;;;13.98;5.55;;;5.60;99.90;;;5.68;92.58;101635.31;5011886;28;20199;-65
2021/12/20 08:05:06;;;;;;;16.25;5.78;;;5.50;99.90;;;5.67;91.95;101641.38;5011366;28;20723;-65
2021/12/20 08:07:33;;;;;;;17.65;7.43;;;5.50;99.90;;;5.71;91.96;101647.31;5012601;28;20678;-64
2021/12/20 08:10:00;;;;;;;14.60;8.05;;;5.60;99.90;;;5.72;91.63;101646.41;5013626;28;20230;-64
2021/12/20 08:12:27;;;;;;;18.23;7.32;;;5.60;99.90;;;5.75;91.58;101641.13;5012698;28;20209;-64
2021/12/20 08:14:54;;;;;;;14.75;7.60;;;5.60;99.90;;;5.83;91.40;101639.09;5012372;28;20227;-64
2021/12/20 08:17:21;;;;;;;19.70;8.50;;;5.70;99.90;;;5.91;91.17;101632.78;5012549;28;20203;-65
2021/12/20 08:19:48;;;;;;;18.70;7.93;;;5.80;99.90;;;5.91;90.96;101645.72;5012478;28;20738;-64
2021/12/20 08:22:14;;;;;;;16.48;8.10;;;5.90;99.90;;;5.95;89.95;101642.13;5009186;28;20651;-64
2021/12/20 08:24:42;;;;;;;18.33;7.20;;;5.90;99.90;;;6.06;90.13;101642.56;5009523;28;20231;-65
2021/12/20 08:27:09;;;;;;;14.13;7.60;;;6.00;99.90;;;6.15;89.56;101652.56;5002440;28;20740;-65
2021/12/20 08:29:36;;;;;;;21.30;8.40;;;6.10;99.90;;;6.25;89.05;101648.75;5012074;28;21295;-65
2021/12/20 08:32:03;;;;;;;12.07;6.20;;;6.20;99.90;;;6.39;88.64;101655.16;5011712;28;20988;-65
2021/12/20 08:34:31;;;;;;;14.57;7.87;;;6.40;99.90;;;6.54;88.33;101662.34;4995216;28;20736;-65
2021/12/20 08:37:00;;;;;;;19.43;8.20;;;6.50;99.90;;;6.60;87.63;101654.31;5010372;28;21110;-65
2021/12/20 08:39:29;;;;;;;16.93;8.30;;;6.60;99.90;;;6.65;87.07;101655.81;5012692;28;20688;-65
2021/12/20 08:41:58;;;;;;;14.70;8.20;;;6.60;99.90;;;6.66;86.78;101665.28;4993508;28;20724;-64
2021/12/20 08:44:25;;;;;;;14.03;7.20;;;6.60;99.90;;;6.70;86.45;101666.88;4993676;28;20671;-64
2021/12/20 08:46:53;;;;;;;13.67;6.17;;;6.70;99.90;;;6.74;85.90;101660.66;5011885;28;20651;-64
2021/12/20 08:49:20;;;;;;;13.40;7.27;;;6.70;99.90;;;6.77;85.80;101657.09;5011175;28;20637;-65
2021/12/20 08:51:48;;;;;;;15.00;7.87;;;6.70;99.90;;;7.09;86.19;101656.63;5011528;28;20748;-64
2021/12/20 08:54:15;;;;;;;20.07;9.13;;;7.20;99.90;;;7.19;83.21;101670.91;4994565;28;20632;-65
2021/12/20 08:56:43;;;;;;;16.73;8.63;;;7.30;99.90;;;7.03;82.79;101669.81;5010643;28;20638;-64
2021/12/20 08:59:10;;;;;;;19.70;9.47;;;7.10;99.90;;;7.58;83.43;101673.56;5006615;28;20669;-65
2021/12/20 09:01:37;;;;;;;18.67;9.70;;;7.80;99.90;;;8.88;78.91;101673.59;5010363;28;20736;-64
2021/12/20 09:04:07;;;;;;;21.67;10.07;;;9.60;99.90;;;9.43;73.87;101671.72;5011135;28;20633;-64
2021/12/20 09:06:38;;;;;;;18.03;8.87;;;10.20;99.90;;;9.16;73.18;101675.69;5010235;28;20625;-63
2021/12/20 09:09:12;;;;;;;20.50;10.03;;;9.70;99.90;;;8.62;74.98;101686.19;5002917;28;20976;-64
2021/12/20 09:11:40;;;;;;;18.87;10.23;;;8.80;99.90;;;8.24;76.71;101687.94;5011250;28;20645;-63
2021/12/20 09:14:13;;;;;;;21.87;9.90;;;8.30;99.90;;;7.72;79.44;101674.66;5009826;28;21271;-65
2021/12/20 09:16:41;;;;;;;17.77;9.37;;;7.80;99.90;;;7.54;80.88;101682.38;5010371;28;21431;-63
2021/12/20 09:19:08;;;;;;;21.57;10.73;;;7.60;99.90;;;7.43;80.66;101689.81;5011017;28;20727;-63
2021/12/20 09:21:35;;;;;;;20.00;9.27;;;7.50;99.90;;;7.03;83.30;101682.81;5007193;28;20653;-64
2021/12/20 09:24:04;;;;;;;22.40;9.90;;;7.10;99.90;;;6.94;83.98;101688.38;5010874;28;21235;-66
2021/12/20 09:26:32;;;;;;;15.20;7.97;;;6.90;99.90;;;6.95;84.10;101697.84;5009955;28;21065;-64
2021/12/20 09:28:59;;;;;;;14.87;8.50;;;6.90;99.90;;;6.77;84.59;101696.00;5012063;28;21014;-63
2021/12/20 09:31:26;;;;;;;13.90;8.47;;;6.80;99.90;;;6.67;84.35;101692.06;4993686;28;20636;-64
2021/12/20 09:33:55;;;;;;;15.57;7.80;;;6.70;99.90;;;6.76;84.49;101695.16;5011563;28;21202;-65
2021/12/20 09:36:28;;;;;;;17.00;7.90;;;6.70;99.90;;;6.75;83.57;101687.44;4990850;28;20633;-64
2021/12/20 09:39:00;;;;;;;10.40;5.10;;;6.70;99.90;;;6.71;82.56;101696.22;5011133;28;20768;-63
2021/12/20 09:44:09;;;;;;;11.20;6.20;;;6.60;99.90;;;6.72;82.66;101700.50;5008668;28;20648;-63
2021/12/20 09:46:38;;;;;;;12.77;7.17;;;6.70;99.90;;;6.74;82.00;101702.16;5009244;28;20633;-66
2021/12/20 09:49:14;;;;;;;12.55;6.53;;;6.70;99.90;;;6.68;81.93;101698.94;4980974;28;20855;-65
2021/12/20 09:51:41;;;;;;;13.13;6.90;;;6.60;99.90;;;6.70;82.07;101697.97;5011672;28;20206;-65
2021/12/20 09:54:08;;;;;;;12.93;6.00;;;6.70;99.90;;;6.75;81.34;101705.59;5010904;28;20657;-64
2021/12/20 09:56:39;;;;;;;13.50;5.20;;;6.70;99.90;;;6.74;81.43;101709.94;5009102;28;20645;-64
2021/12/20 09:59:16;;;;;;;8.40;4.80;;;6.70;99.90;;;6.71;82.07;101702.25;5006794;28;21363;-64
2021/12/20 10:01:45;;;;;;;7.80;5.20;;;6.70;99.90;;;6.69;81.42;101701.47;4992606;28;20641;-65
2021/12/20 10:04:12;;;;;;;8.20;3.73;;;6.70;99.90;;;6.67;79.95;101692.06;4977106;28;20668;-64
2021/12/20 10:06:40;;;;;;;9.50;4.43;;;6.60;99.90;;;6.65;80.89;101692.13;5010373;28;20617;-63
2021/12/20 10:09:13;;;;;;;12.40;4.07;;;6.60;99.90;;;6.69;80.00;101700.63;5011217;28;20709;-64
2021/12/20 10:11:43;;;;;;;4.80;3.17;;;6.60;99.90;;;6.62;80.09;101699.19;5009124;28;20217;-64
2021/12/20 10:14:16;;;;;;;8.33;4.17;;;6.60;99.90;;;6.69;79.79;101695.44;5009766;28;21103;-64
2021/12/20 10:16:45;;;;;;;5.30;3.23;;;6.60;99.90;;;6.66;79.78;101686.03;4992568;28;20624;-64
2021/12/20 10:19:34;;;;;;;5.33;2.87;;;6.70;99.90;;;6.74;79.24;101690.91;5009936;28;20669;-63
2021/12/20 10:22:35;;;;;;;11.93;3.80;;;6.70;99.90;;;6.74;79.49;101685.72;5005930;28;20729;-63
2021/12/20 10:25:19;;;;;;;5.10;2.63;;;6.60;99.90;;;6.75;78.68;101680.47;5002326;28;20665;-64
2021/12/20 10:27:46;;;;;;;6.47;3.67;;;6.70;99.90;;;6.69;79.94;101674.69;5010105;28;20630;-65
2021/12/20 10:30:42;;;;;;;4.67;2.90;;;6.70;99.90;;;6.76;78.55;101678.72;5010706;28;21200;-65
2021/12/20 10:33:17;;;;;;;2.07;1.83;;;6.70;99.90;;;6.67;78.37;101682.53;4991598;28;20629;-65
2021/12/20 10:35:52;;;;;;;2.40;2.20;;;6.60;99.90;;;6.68;79.31;101673.00;5009644;28;20647;-65
2021/12/20 10:38:30;;;;;;;6.73;2.83;;;6.60;99.90;;;6.67;79.48;101672.16;4991571;28;20716;-64
2021/12/20 10:41:10;;;;;;;4.77;3.00;;;6.60;99.90;;;6.62;78.04;101665.47;5004002;28;20653;-64
2021/12/20 10:43:51;;;;;;;4.57;2.43;;;6.50;99.90;;;6.59;78.41;101671.63;5009561;28;21207;-64
2021/12/20 10:46:28;;;;;;;4.23;2.70;;;6.50;99.90;;;6.64;77.77;101676.63;5007712;28;20625;-64
2021/12/20 10:49:04;;;;;;;6.83;3.13;;;6.50;99.90;;;6.58;77.82;101671.69;5010283;28;20615;-65